Time;durP1;ratioP1;P1;durP2;ratioP2;P2;SDS_P1;SDS_P2;PMS_P1;PMS_P2;Temp;Humidity;BMP_temperature;BMP_pressure;BME280_temperature;BME280_humidity;BME280_pressure;Samples;Min_cycle;Max_cycle;Signal;HPM_P1;HPM_P2
2021/08/01 00:23:03;;;;;;;;;;;;;;;;;;;;;
2021/08/01 00:34:03;;;;;;;;;;;;;;;;;;;;;
2021/08/01 00:40:22;;;;;;;0.75;0.47;;;;;;;15.31;73.73;99870.38;4758463;30;20107;-77
2021/08/01 01:03:58;;;;;;;6.70;1.23;;;;;;;14.98;74.39;99835.59;4761675;30;20088;-76
2021/08/01 01:44:17;;;;;;;;;;;;;;;;;;;;;
2021/08/01 01:48:04;;;;;;;1.00;0.60;;;;;;;14.98;74.45;99816.31;4778736;29;20133;-79
2021/08/01 01:50:17;;;;;;;0.65;0.65;;;;;;;15.06;73.99;99817.50;4844968;29;20048;-80
2021/08/01 01:52:48;;;;;;;0.60;0.55;;;;;;;15.07;74.09;99819.16;4900954;29;20032;-79
2021/08/01 01:55:16;;;;;;;1.10;0.75;;;;;;;15.09;74.00;99829.84;4910613;29;20111;-77
2021/08/01 01:57:42;;;;;;;0.88;0.68;;;;;;;15.12;74.07;99826.47;4904718;29;20132;-77
2021/08/01 02:00:24;;;;;;;2.90;0.73;;;;;;;15.06;74.31;99812.00;4886678;29;20091;-78
2021/08/01 02:02:59;;;;;;;0.65;0.50;;;;;;;14.99;73.90;99800.59;4911537;29;20048;-81
2021/08/01 02:05:37;;;;;;;;;;;;;;;;;;;;;
2021/08/01 02:08:06;;;;;;;0.73;0.63;;;;;;;15.13;73.98;99823.41;4936863;29;20345;-77
2021/08/01 02:10:41;;;;;;;;;;;;;;;;;;;;;
2021/08/01 02:13:08;;;;;;;1.55;0.75;;;;;;;15.15;74.17;99823.88;4965254;28;20106;-77
2021/08/01 02:15:56;;;;;;;6.07;1.10;;;;;;;15.09;74.25;99805.06;4961827;28;20592;-76
2021/08/01 02:18:59;;;;;;;0.70;0.70;;;;;;;15.14;74.27;99813.19;4958736;28;20458;-81
2021/08/01 02:21:34;;;;;;;0.75;0.70;;;;;;;15.06;74.06;99812.00;4963886;28;20030;-81
2021/08/01 02:24:04;;;;;;;1.65;0.90;;;;;;;15.07;74.60;99812.81;4959768;28;20035;-79
2021/08/01 02:26:45;;;;;;;;;;;;;;;;;;;;;
2021/08/01 02:29:24;;;;;;;;;;;;;;;;;;;;;
2021/08/01 02:31:57;;;;;;;1.33;0.47;;;;;;;15.06;74.39;99812.00;4965552;28;20123;-80
2021/08/01 02:34:44;;;;;;;0.70;0.57;;;;;;;15.13;73.82;99822.59;4955751;28;20023;-79
2021/08/01 02:37:12;;;;;;;0.73;0.50;;;;;;;15.09;74.08;99807.81;4934182;28;20034;-79
2021/08/01 02:39:51;;;;;;;0.43;0.40;;;;;;;14.98;73.87;99793.44;4966340;28;20042;-78
2021/08/01 02:42:18;;;;;;;0.60;0.60;;;;;;;15.10;74.04;99815.75;4961899;28;20598;-77
2021/08/01 02:44:44;;;;;;;1.83;0.80;;;;;;;14.94;74.49;99786.97;4968473;28;20026;-77
2021/08/01 02:47:28;;;;;;;1.02;0.85;;;;;;;15.06;74.45;99812.00;4965128;28;20066;-79
2021/08/01 02:50:04;;;;;;;0.60;0.60;;;;;;;15.01;74.48;99820.41;4962944;28;20065;-76
2021/08/01 02:52:40;;;;;;;;;;;;;;;15.07;74.55;99813.63;4971801;28;20091;-78
2021/08/01 02:55:15;;;;;;;;;;;;;;;15.03;74.19;99807.13;4971800;28;19910;-79
2021/08/01 02:57:57;;;;;;;0.85;0.65;;;;;;;14.78;74.68;99783.75;4957686;29;20003;-77
2021/08/01 03:04:15;;;;;;;;;;;;;;;;;;;;;
2021/08/01 03:06:42;;;;;;;2.80;0.70;;;;;;;14.86;74.62;99795.94;4922020;29;20086;-76
2021/08/01 03:09:09;;;;;;;1.17;0.77;;;;;;;14.82;74.76;99793.81;4903178;29;20108;-75
2021/08/01 03:11:35;;;;;;;7.07;0.98;;;;;;;14.83;75.04;99789.97;4904509;29;20044;-79
2021/08/01 03:17:06;;;;;;;1.73;1.08;;;;;;;14.93;74.75;99807.34;4914721;29;20052;-78
2021/08/01 03:19:39;;;;;;;1.00;0.75;;;;;;;14.75;74.86;99782.44;4921765;29;20024;-78
2021/08/01 03:22:05;;;;;;;3.50;0.98;;;;;;;14.81;75.27;99788.63;4917872;29;20028;-77
2021/08/01 03:24:33;;;;;;;2.90;1.30;;;;;;;14.89;75.04;99811.84;4905474;29;20040;-76
2021/08/01 03:26:59;;;;;;;2.58;1.13;;;;;;;14.78;75.00;99790.06;4919092;29;20031;-76
2021/08/01 03:29:25;;;;;;;4.00;0.88;;;;;;;14.85;75.11;99800.66;4919120;29;20044;-77
2021/08/01 03:31:50;;;;;;;2.40;0.70;;;;;;;14.81;75.39;99789.44;4904744;29;20020;-77
2021/08/01 03:34:16;;;;;;;7.28;0.98;;;;;;;14.83;75.23;99798.22;4942302;29;20047;-76
2021/08/01 03:36:41;;;;;;;2.83;0.80;;;;;;;14.83;75.05;99800.97;4940257;29;20038;-76
2021/08/01 03:39:08;;;;;;;4.07;0.88;;;;;;;14.83;75.34;99814.72;4958914;28;20114;-77
2021/08/01 03:41:36;;;;;;;0.90;0.50;;;;;;;14.83;75.16;99814.72;4956703;28;20066;-76
2021/08/01 03:47:47;;;;;;;;;;;;;;;;;;;;;
2021/08/01 03:57:42;;;;;;;0.70;0.70;;;;;;;14.92;74.87;99816.72;4823699;29;20060;-77
2021/08/01 04:00:11;;;;;;;2.55;0.85;;;;;;;14.88;75.42;99810.22;4824047;29;20062;-77
2021/08/01 04:02:39;;;;;;;1.35;0.80;;;;;;;14.87;74.97;99809.41;4889685;29;20053;-79
2021/08/01 04:05:32;;;;;;;2.67;0.82;;;;;;;14.95;74.91;99827.13;4930831;28;20066;-80
2021/08/01 04:08:06;;;;;;;1.08;1.02;;;;;;;14.93;75.06;99824.69;4949541;28;20047;-76
2021/08/01 04:10:39;;;;;;;0.68;0.68;;;;;;;14.96;75.23;99820.50;4962068;28;20023;-76
2021/08/01 04:13:05;;;;;;;0.70;0.70;;;;;;;14.90;74.86;99810.72;4942336;28;20059;-76
2021/08/01 04:15:44;;;;;;;2.42;0.88;;;;;;;14.95;75.24;99821.59;4950056;28;20039;-76
2021/08/01 04:18:14;;;;;;;1.27;0.80;;;;;;;14.91;75.51;99820.59;4946561;28;20027;-79
2021/08/01 04:20:43;;;;;;;1.98;0.90;;;;;;;14.96;75.20;99828.75;4944218;28;20098;-79
2021/08/01 04:23:39;;;;;;;;;;;;;;;;;;;;;
2021/08/01 04:26:05;;;;;;;;;;;;;;;15.03;75.20;99829.16;4947086;29;20086;-76
2021/08/01 04:28:31;;;;;;;0.60;0.60;;;;;;;14.96;75.39;99829.56;4942562;28;20293;-76
2021/08/01 04:31:15;;;;;;;;;;;;;;;;;;;;;
2021/08/01 04:33:50;;;;;;;3.70;0.63;;;;;;;14.80;75.31;99811.75;4963325;28;20091;-78
2021/08/01 04:36:16;;;;;;;0.57;0.53;;;;;;;14.83;75.10;99813.91;4947821;28;20370;-78
2021/08/01 04:38:53;;;;;;;2.20;0.80;;;;;;;14.84;75.19;99826.53;4944183;28;20273;-78
2021/08/01 04:41:27;;;;;;;1.75;0.77;;;;;;;14.89;75.12;99833.88;4965054;28;20034;-77
2021/08/01 04:43:53;;;;;;;0.55;0.40;;;;;;;14.89;75.51;99834.66;4964936;28;20039;-79
2021/08/01 04:46:31;;;;;;;;;;;;;;;;;;;;;
2021/08/01 04:49:06;;;;;;;0.60;0.60;;;;;;;14.84;75.26;99832.06;4965306;28;20091;-78
2021/08/01 04:51:44;;;;;;;;;;;;;;;;;;;;;
2021/08/01 04:54:26;;;;;;;1.02;0.60;;;;;;;14.73;75.06;99831.44;4963323;28;20442;-77
2021/08/01 05:03:35;;;;;;;1.45;0.77;;;;;;;14.45;75.47;99823.19;4932877;28;20054;-78
2021/08/01 05:06:03;;;;;;;0.50;0.50;;;;;;;14.40;75.88;99825.25;4949631;28;20027;-81
2021/08/01 05:08:44;;;;;;;2.67;0.85;;;;;;;14.51;76.16;99850.59;4967935;28;20054;-80
2021/08/01 05:11:09;;;;;;;0.52;0.52;;;;;;;14.34;76.19;99824.53;4943460;28;20030;-80
2021/08/01 05:13:47;;;;;;;3.10;0.88;;;;;;;14.44;76.47;99840.84;4970724;28;20051;-79
2021/08/01 05:19:53;;;;;;;1.02;0.65;;;;;;;14.45;76.33;99842.44;4909836;28;20034;-79
2021/08/01 05:23:42;;;;;;;;;;;;;;;;;;;;;
2021/08/01 05:26:17;;;;;;;;;;;;;;;;;;;;;
2021/08/01 05:28:55;;;;;;;2.38;0.70;;;;;;;14.52;76.80;99844.00;4915363;29;20045;-77
2021/08/01 05:31:27;;;;;;;1.65;0.90;;;;;;;14.66;76.55;99850.34;4954061;28;20059;-77
2021/08/01 05:41:18;;;;;;;0.80;0.80;;;;;;;14.89;76.41;99839.38;4890058;29;20040;-76
2021/08/01 05:44:52;;;;;;;0.82;0.70;;;;;;;15.14;75.68;99858.09;4971120;28;20049;-78
2021/08/01 05:47:18;;;;;;;0.65;0.65;;;;;;;15.18;76.23;99859.06;4940557;28;20106;-77
2021/08/01 05:49:53;;;;;;;;;;;;;;;;;;;;;
2021/08/01 05:52:26;;;;;;;0.80;0.70;;;;;;;15.35;75.39;99857.59;4964534;28;20110;-76
2021/08/01 05:55:01;;;;;;;0.70;0.70;;;;;;;15.38;75.63;99856.97;4967060;28;20428;-74
2021/08/01 05:57:29;;;;;;;0.80;0.80;;;;;;;15.31;75.64;99845.56;4948798;28;20389;-75
2021/08/01 06:00:13;;;;;;;1.80;0.80;;;;;;;15.39;75.17;99852.28;4956337;28;20130;-78
2021/08/01 06:02:52;;;;;;;;;;;;;;;;;;;;;
2021/08/01 06:05:18;;;;;;;3.03;0.65;;;;;;;15.47;75.39;99859.78;4949315;28;20094;-78
2021/08/01 06:07:43;;;;;;;0.73;0.73;;;;;;;15.64;75.30;99872.91;4959152;28;20035;-78
2021/08/01 06:10:12;;;;;;;0.85;0.85;;;;;;;15.63;75.40;99868.50;4957557;28;20031;-81
2021/08/01 06:13:01;;;;;;;2.35;1.33;;;;;;;15.79;75.54;99889.06;4960879;28;20007;-78
2021/08/01 06:15:26;;;;;;;3.22;1.00;;;;;;;15.83;74.97;99879.03;4959556;28;20035;-75
2021/08/01 06:17:52;;;;;;;0.77;0.75;;;;;;;16.00;74.93;99892.13;4943343;29;20499;-76
2021/08/01 06:20:59;;;;;;;;;;;;;;;;;;;;;
2021/08/01 06:23:27;;;;;;;1.55;1.00;;;;;;;16.02;74.35;99869.75;4959658;28;20103;-78
2021/08/01 06:26:01;;;;;;;1.38;1.10;;;;;;;16.25;74.48;99889.00;4941787;29;20423;-76
2021/08/01 06:28:36;;;;;;;4.50;1.00;;;;;;;16.14;74.23;99864.44;4956683;28;20035;-78
2021/08/01 06:31:03;;;;;;;1.15;1.15;;;;;;;16.19;73.75;99880.03;4955005;28;20059;-76
2021/08/01 06:33:32;;;;;;;1.48;1.38;;;;;;;16.26;73.86;99898.91;4964250;29;20039;-76
2021/08/01 06:36:08;;;;;;;;;;;;;;;;;;;;;
2021/08/01 06:38:36;;;;;;;1.98;0.88;;;;;;;16.31;73.72;99887.72;4967210;28;20131;-73
2021/08/01 06:41:06;;;;;;;2.75;1.30;;;;;;;16.34;73.52;99895.38;4962644;28;20385;-77
2021/08/01 06:43:32;;;;;;;1.73;1.63;;;;;;;16.32;73.64;99889.38;4949450;29;20038;-77
2021/08/01 06:45:57;;;;;;;3.90;1.38;;;;;;;16.35;73.67;99892.31;4970762;28;20048;-75
2021/08/01 06:48:23;;;;;;;1.40;1.25;;;;;;;16.33;73.63;99886.28;4951085;28;20158;-76
2021/08/01 06:50:49;;;;;;;2.00;1.90;;;;;;;16.43;73.39;99895.41;4972527;28;20015;-75
2021/08/01 06:53:22;;;;;;;2.55;1.85;;;;;;;16.45;73.40;99891.19;4964373;28;20023;-74
2021/08/01 06:55:48;;;;;;;1.80;1.80;;;;;;;16.47;73.51;99886.19;4964315;28;20401;-77
2021/08/01 06:58:25;;;;;;;1.75;1.65;;;;;;;16.61;73.34;99876.97;4944642;28;20026;-79
2021/08/01 07:01:03;;;;;;;2.15;2.00;;;;;;;16.67;73.07;99875.69;4969666;28;20030;-79
2021/08/01 07:03:41;;;;;;;5.25;2.35;;;;;;;16.79;72.35;99892.44;4970229;28;20039;-79
2021/08/01 07:06:10;;;;;;;1.95;1.75;;;;;;;16.83;72.42;99882.38;4935327;29;20031;-78
2021/08/01 07:12:25;;;;;;;4.22;1.95;;;;;;;17.37;71.85;99900.69;4954925;28;20026;-76
2021/08/01 07:14:56;;;;;;;2.33;2.17;;;;;;;17.26;71.37;99873.38;4962574;28;20095;-74
2021/08/01 07:17:22;;;;;;;1.75;1.65;;;;;;;17.41;70.73;99876.81;4963386;28;20079;-75
2021/08/01 07:20:25;;;;;;;;;;;;;;;;;;;;;
2021/08/01 07:23:50;;;;;;;2.58;2.40;;;;;;;17.89;69.42;99905.41;4964952;28;20103;-78
2021/08/01 07:26:26;;;;;;;5.07;1.58;;;;;;;17.87;69.13;99902.13;4961420;28;20043;-75
2021/08/01 07:28:57;;;;;;;1.95;1.85;;;;;;;17.96;68.95;99906.53;4962449;28;20023;-74
2021/08/01 07:31:55;;;;;;;6.45;1.55;;;;;;;18.02;69.41;99898.06;4964836;28;20532;-77
2021/08/01 07:34:49;;;;;;;2.33;1.55;;;;;;;18.16;68.54;99906.97;4945942;29;20027;-75
2021/08/01 07:37:07;;;;;;;;;;;;;;;18.32;67.73;99921.09;4955817;28;20038;-74
2021/08/01 07:39:32;;;;;;;;;;;;;;;18.27;67.34;99921.28;4946100;28;19913;-73
2021/08/01 07:42:03;;;;;;;2.57;1.60;;;;;;;18.11;67.61;99921.00;4959628;28;20237;-73
2021/08/01 07:44:37;;;;;;;1.50;1.40;;;;;;;18.12;67.78;99914.31;4958645;28;20066;-74
2021/08/01 07:47:03;;;;;;;2.10;2.00;;;;;;;18.19;67.92;99899.97;4959726;28;20038;-75
2021/08/01 07:49:29;;;;;;;2.20;2.10;;;;;;;18.33;67.46;99908.88;4955571;28;20027;-74
2021/08/01 07:52:02;;;;;;;1.90;1.80;;;;;;;18.65;67.02;99918.53;4969594;28;20074;-73
2021/08/01 07:54:30;;;;;;;2.25;2.10;;;;;;;18.85;66.30;99907.81;4959550;28;20024;-73
2021/08/01 07:56:58;;;;;;;2.63;2.28;;;;;;;19.08;65.43;99924.19;4968080;28;20051;-73
2021/08/01 07:59:24;;;;;;;4.75;2.28;;;;;;;19.15;65.20;99916.16;4948628;28;20035;-73
2021/08/01 08:01:54;;;;;;;2.38;2.17;;;;;;;19.29;64.68;99922.25;4940393;28;20058;-73
2021/08/01 08:04:26;;;;;;;2.30;2.20;;;;;;;19.44;64.15;99911.72;4930670;29;20034;-71
2021/08/01 08:06:52;;;;;;;1.85;1.75;;;;;;;19.60;64.32;99915.50;4959986;28;20110;-72
2021/08/01 08:09:22;;;;;;;2.13;2.03;;;;;;;19.76;62.90;99917.66;4943345;28;20121;-71
2021/08/01 08:11:48;;;;;;;1.98;1.75;;;;;;;19.90;63.29;99911.81;4965640;28;20031;-72
2021/08/01 08:14:14;;;;;;;1.52;1.52;;;;;;;20.03;62.31;99913.50;4960638;28;20011;-71
2021/08/01 08:16:59;;;;;;;3.90;1.80;;;;;;;20.18;62.05;99914.78;4960062;28;20039;-72
2021/08/01 08:19:25;;;;;;;1.90;1.80;;;;;;;20.26;61.19;99913.09;4968356;28;20125;-71
2021/08/01 08:21:51;;;;;;;2.30;1.92;;;;;;;20.28;61.03;99917.16;4924540;29;20028;-77
2021/08/01 08:24:16;;;;;;;1.83;1.73;;;;;;;20.38;60.66;99916.72;4963639;28;20137;-77
2021/08/01 08:27:08;;;;;;;2.17;1.75;;;;;;;20.54;60.43;99927.13;4929705;29;20761;-74
2021/08/01 08:32:11;;;;;;;1.60;1.50;;;;;;;20.59;59.70;99921.34;5680936;23;20861;-74
2021/08/01 08:34:36;;;;;;;1.63;1.63;;;;;;;20.68;59.43;99926.84;4943815;28;20038;-73
2021/08/01 08:37:16;;;;;;;1.15;1.15;;;;;;;20.89;59.41;99923.94;4946650;28;20043;-76
2021/08/01 08:39:52;;;;;;;2.28;1.83;;;;;;;21.02;58.82;99921.97;4948439;28;20035;-77
2021/08/01 08:42:18;;;;;;;2.03;1.73;;;;;;;21.05;58.11;99916.50;4980543;28;20112;-78
2021/08/01 08:44:47;;;;;;;1.67;1.58;;;;;;;21.15;57.13;99920.78;4966808;28;20034;-78
2021/08/01 08:47:17;;;;;;;1.27;1.27;;;;;;;21.25;57.36;99922.28;4969280;28;20034;-77
2021/08/01 08:49:57;;;;;;;;;;;;;;;;;;;;;
2021/08/01 09:00:03;;;;;;;1.63;1.35;;;;;;;22.16;54.88;99922.88;4937812;23;20051;-77
2021/08/01 09:02:34;;;;;;;0.90;0.73;;;;;;;22.19;54.80;99916.59;4933655;28;20047;-78
2021/08/01 09:05:17;;;;;;;1.40;1.30;;;;;;;22.30;54.43;99910.16;4953254;28;20034;-77
2021/08/01 09:07:52;;;;;;;0.88;0.88;;;;;;;22.52;54.35;99921.06;4960261;29;20015;-78
2021/08/01 09:10:21;;;;;;;1.05;0.95;;;;;;;22.60;53.68;99931.22;4946400;29;20039;-76
2021/08/01 09:13:15;;;;;;;0.90;0.90;;;;;;;22.74;53.25;99937.16;4934404;29;20031;-75
2021/08/01 09:15:42;;;;;;;0.90;0.90;;;;;;;22.80;53.26;99913.41;4933876;28;20031;-74
2021/08/01 09:21:37;;;;;;;0.98;0.93;;;;;;;23.03;52.01;99926.69;4948216;28;20031;-76
2021/08/01 09:24:23;;;;;;;1.58;0.80;;;;;;;22.92;51.83;99925.63;4967236;28;20015;-75
2021/08/01 09:27:38;;;;;;;;;;;;;;;;;;;;;
2021/08/01 09:30:09;;;;;;;1.77;1.35;;;;;;;22.51;52.25;99925.81;4961668;29;20094;-75
2021/08/01 09:33:16;;;;;;;1.38;1.08;;;;;;;22.60;52.93;99934.00;4933468;29;20035;-75
2021/08/01 09:39:22;;;;;;;;;;;;;;;;;;;;;
2021/08/01 09:42:11;;;;;;;0.98;0.98;;;;;;;22.39;53.14;99940.66;4892089;29;20496;-76
2021/08/01 09:44:40;;;;;;;1.00;1.00;;;;;;;22.27;52.75;99946.28;4892604;29;20061;-74
2021/08/01 09:47:32;;;;;;;1.52;1.10;;;;;;;22.20;52.88;99940.50;4879445;29;20036;-76
2021/08/01 09:50:34;;;;;;;1.73;1.10;;;;;;;22.01;52.85;99932.84;4945698;29;20047;-74
2021/08/01 09:56:24;;;;;;;7.43;0.90;;;;;;;21.93;53.58;99942.94;4949402;29;20210;-74
2021/08/01 09:58:52;;;;;;;1.08;1.05;;;;;;;21.90;53.81;99947.25;4955562;28;20039;-74
2021/08/01 10:01:20;;;;;;;1.35;1.30;;;;;;;21.98;53.41;99945.47;4941140;28;20047;-74
2021/08/01 10:03:50;;;;;;;0.82;0.82;;;;;;;22.13;53.24;99947.47;4950134;28;20458;-75
2021/08/01 10:06:20;;;;;;;0.80;0.80;;;;;;;22.39;53.07;99948.19;4915895;29;20482;-74
2021/08/01 10:08:48;;;;;;;1.83;0.80;;;;;;;22.58;52.30;99944.72;4959391;28;20027;-74
2021/08/01 10:11:17;;;;;;;8.55;1.08;;;;;;;22.78;51.80;99949.19;4944622;29;20075;-76
2021/08/01 10:13:53;;;;;;;0.70;0.70;;;;;;;22.90;50.81;99953.06;4945361;29;20065;-76
2021/08/01 10:16:20;;;;;;;0.80;0.60;;;;;;;22.92;50.74;99942.34;4961428;28;20029;-74
2021/08/01 10:18:49;;;;;;;1.08;0.90;;;;;;;23.04;50.15;99956.16;4941199;29;20208;-74
2021/08/01 10:21:27;;;;;;;3.78;1.30;;;;;;;23.00;49.71;99946.94;4930766;28;20031;-74
2021/08/01 10:24:06;;;;;;;0.70;0.70;;;;;;;22.91;50.36;99957.44;4946458;29;20342;-74
2021/08/01 10:26:38;;;;;;;1.08;0.63;;;;;;;22.83;50.32;99962.03;4948829;28;20030;-74
2021/08/01 10:29:09;;;;;;;1.50;0.90;;;;;;;22.68;50.74;99955.31;4953297;28;20063;-76
2021/08/01 10:32:00;;;;;;;0.90;0.90;;;;;;;22.60;51.41;99961.84;4957376;28;20030;-73
2021/08/01 10:34:36;;;;;;;1.73;0.98;;;;;;;22.47;51.83;99950.81;4930153;28;20066;-74
2021/08/01 10:37:16;;;;;;;;;;;;;;;;;;;;;
2021/08/01 10:39:53;;;;;;;1.17;0.95;;;;;;;22.06;53.71;99947.28;4958635;28;20075;-73
2021/08/01 10:42:24;;;;;;;1.10;1.10;;;;;;;22.10;54.38;99959.31;4953239;28;20027;-74
2021/08/01 10:45:00;;;;;;;;;;;;;;;;;;;;;
2021/08/01 10:47:26;;;;;;;2.85;1.10;;;;;;;22.18;53.96;99959.53;4952172;28;20106;-72
2021/08/01 10:49:53;;;;;;;1.15;0.80;;;;;;;22.26;54.64;99958.56;4952710;28;20391;-74
2021/08/01 10:52:21;;;;;;;0.90;0.90;;;;;;;22.34;54.36;99952.06;4959286;28;20008;-74
2021/08/01 10:55:06;;;;;;;0.93;0.93;;;;;;;22.59;53.84;99968.59;4942008;29;20375;-73
2021/08/01 10:57:42;;;;;;;0.93;0.93;;;;;;;22.60;52.94;99970.22;4965477;28;20054;-73
2021/08/01 11:00:11;;;;;;;0.80;0.80;;;;;;;22.48;51.45;99963.56;4934673;29;20108;-73
2021/08/01 11:02:40;;;;;;;1.20;1.10;;;;;;;22.31;51.98;99963.84;4943633;29;20453;-74
2021/08/01 11:05:45;;;;;;;1.05;0.98;;;;;;;22.34;52.53;99968.78;4916511;29;20114;-73
2021/08/01 11:08:14;;;;;;;0.82;0.80;;;;;;;22.12;53.85;99967.31;4892995;29;20036;-75
2021/08/01 11:10:43;;;;;;;3.63;0.65;;;;;;;22.07;54.35;99968.41;4875388;29;20032;-73
2021/08/01 11:13:35;;;;;;;0.70;0.70;;;;;;;22.23;54.53;99962.88;4922350;28;20098;-74
2021/08/01 11:16:08;;;;;;;0.50;0.50;;;;;;;22.11;55.33;99949.03;4952421;28;20101;-77
2021/08/01 11:18:37;;;;;;;0.90;0.90;;;;;;;22.33;55.64;99956.00;4926611;28;20023;-76
2021/08/01 11:21:16;;;;;;;;;;;;;;;;;;;;;
2021/08/01 11:23:45;;;;;;;0.47;0.47;;;;;;;23.38;55.76;99959.38;4962572;28;20083;-74
2021/08/01 11:26:39;;;;;;;;;;;;;;;;;;;;;
2021/08/01 11:29:17;;;;;;;0.73;0.70;;;;;;;24.56;51.89;99963.75;4936623;28;20095;-75
2021/08/01 11:32:29;;;;;;;0.40;0.40;;;;;;;25.17;51.16;99961.13;4933516;29;20015;-73
2021/08/01 11:35:15;;;;;;;0.68;0.68;;;;;;;25.53;50.51;99961.69;4958405;28;20035;-72
2021/08/01 11:37:40;;;;;;;;;;;;;;;25.67;48.19;99968.66;4933938;28;20047;-74
2021/08/01 11:40:13;;;;;;;1.52;1.20;;;;;;;24.95;48.30;99962.00;4943157;28;20293;-72
2021/08/01 11:42:44;;;;;;;4.78;1.20;;;;;;;24.33;49.72;99957.34;4929227;28;20023;-72
2021/08/01 11:45:13;;;;;;;1.60;1.52;;;;;;;23.87;50.72;99964.44;4963991;28;20027;-72
2021/08/01 11:47:44;;;;;;;4.82;1.55;;;;;;;23.50;51.38;99950.88;4928303;28;20039;-75
2021/08/01 11:50:12;;;;;;;1.33;1.27;;;;;;;23.22;53.16;99966.97;4963196;28;20027;-73
2021/08/01 11:55:59;;;;;;;1.70;1.60;;;;;;;22.23;57.52;99962.88;4947860;28;20039;-77
2021/08/01 12:01:34;;;;;;;1.20;1.13;;;;;;;21.49;60.49;99951.19;4882302;29;20057;-79
2021/08/01 12:04:14;;;;;;;0.80;0.80;;;;;;;21.36;61.37;99962.34;4928388;29;20410;-74
2021/08/01 12:06:54;;;;;;;;;;;;;;;;;;;;;
2021/08/01 12:10:08;;;;;;;;;;;;;;;;;;;;;
2021/08/01 12:13:25;;;;;;;0.88;0.82;;;;;;;21.01;62.42;99948.94;4953411;28;20103;-77
2021/08/01 12:15:58;;;;;;;0.68;0.68;;;;;;;21.01;61.46;99948.13;4894498;28;20047;-74
2021/08/01 12:18:36;;;;;;;0.68;0.68;;;;;;;21.26;61.28;99976.69;4957685;28;20041;-74
2021/08/01 12:21:38;;;;;;;0.40;0.40;;;;;;;21.31;60.23;99968.13;4930390;28;20036;-74
2021/08/01 12:24:31;;;;;;;1.48;0.73;;;;;;;21.54;59.90;99976.81;4940214;29;20039;-74
2021/08/01 12:27:07;;;;;;;0.50;0.50;;;;;;;21.87;59.56;99966.63;4958395;28;20039;-75
2021/08/01 12:29:51;;;;;;;0.47;0.47;;;;;;;22.55;59.98;99981.66;4948502;28;20038;-79
2021/08/01 12:32:23;;;;;;;0.80;0.60;;;;;;;23.04;57.48;99978.47;4939121;29;20426;-74
2021/08/01 12:35:11;;;;;;;0.88;0.40;;;;;;;23.84;57.56;99955.94;4949711;28;20050;-75
2021/08/01 12:38:00;;;;;;;2.47;0.73;;;;;;;24.64;55.13;99966.69;4957658;28;20019;-76
2021/08/01 12:40:43;;;;;;;0.38;0.38;;;;;;;25.00;53.44;99970.06;4957929;28;20043;-74
2021/08/01 12:43:10;;;;;;;0.80;0.57;;;;;;;24.96;51.71;99966.44;4949954;28;20035;-73
2021/08/01 12:45:40;;;;;;;0.65;0.30;;;;;;;24.94;51.80;99968.78;4954011;28;20030;-74
2021/08/01 12:48:24;;;;;;;0.40;0.40;;;;;;;25.05;51.77;99959.38;4933686;29;20474;-73
2021/08/01 12:51:05;;;;;;;0.35;0.35;;;;;;;25.09;51.98;99970.63;4961099;28;20043;-73
2021/08/01 12:53:31;;;;;;;0.20;0.20;;;;;;;25.42;52.28;99967.16;4941068;28;20359;-74
2021/08/01 12:55:59;;;;;;;0.30;0.30;;;;;;;26.00;51.87;99955.91;4932978;29;20031;-73
2021/08/01 12:58:30;;;;;;;0.38;0.30;;;;;;;26.51;49.17;99966.44;4939748;29;20023;-73
2021/08/01 13:01:03;;;;;;;0.73;0.60;;;;;;;26.94;48.75;99960.41;4943809;29;20042;-74
2021/08/01 13:03:43;;;;;;;0.47;0.45;;;;;;;27.17;46.65;99969.41;4942781;28;20042;-75
2021/08/01 13:06:13;;;;;;;0.40;0.40;;;;;;;27.25;46.08;99973.06;4963251;28;20033;-74
2021/08/01 13:08:42;;;;;;;0.75;0.30;;;;;;;27.95;46.77;99975.84;4938807;29;20039;-73
2021/08/01 13:11:10;;;;;;;0.10;0.10;;;;;;;28.70;44.98;99975.25;4960818;28;20027;-73
2021/08/01 13:13:48;;;;;;;0.60;0.20;;;;;;;30.17;44.43;99966.88;4945556;29;20019;-74
2021/08/01 13:16:14;;;;;;;0.20;0.20;;;;;;;31.92;39.12;99974.22;4962051;28;20042;-73
2021/08/01 13:18:39;;;;;;;0.30;0.20;;;;;;;32.88;36.02;99972.03;4936603;28;20031;-74
2021/08/01 13:21:22;;;;;;;0.40;0.40;;;;;;;33.08;34.53;99974.13;4944931;29;20039;-74
2021/08/01 13:23:52;;;;;;;0.17;0.17;;;;;;;33.50;33.12;99983.06;4936989;28;20386;-77
2021/08/01 13:26:29;;;;;;;0.20;0.20;;;;;;;34.00;31.21;99974.81;4941481;28;20524;-76
2021/08/01 13:29:07;;;;;;;0.40;0.20;;;;;;;34.14;31.30;99988.66;4972095;28;20528;-77
2021/08/01 13:31:32;;;;;;;0.10;0.10;;;;;;;34.68;29.66;99986.63;4966488;28;20031;-76
2021/08/01 13:34:03;;;;;;;0.20;0.15;;;;;;;34.75;29.82;99992.13;4959395;28;20038;-76
2021/08/01 13:36:45;;;;;;;0.17;0.17;;;;;;;35.30;28.79;99990.34;4960317;28;20066;-77
2021/08/01 14:35:00;;;;;;;0.20;0.20;;;;;;;21.66;58.26;100023.28;4930949;29;20084;-80
2021/08/01 14:41:18;;;;;;;;;;;;;;;;;;;;;
2021/08/01 14:55:34;;;;;;;0.30;0.30;;;;;;;22.00;58.06;100015.50;4816871;29;20050;-78
2021/08/01 14:58:23;;;;;;;0.40;0.40;;;;;;;22.21;57.77;100009.75;4823038;29;20150;-75
2021/08/01 15:01:09;;;;;;;0.63;0.63;;;;;;;22.41;57.33;100002.38;4835156;29;20054;-74
2021/08/01 15:04:23;;;;;;;0.90;0.40;;;;;;;22.62;57.10;100006.91;4829016;29;20042;-75
2021/08/01 15:07:53;;;;;;;2.45;0.80;;;;;;;22.78;56.47;100013.31;4900922;29;20092;-76
2021/08/01 15:10:51;;;;;;;1.20;0.30;;;;;;;22.80;56.36;99999.81;4903917;29;20466;-77
2021/08/01 16:08:00;;;;;;;0.20;0.20;;;;;;;41.37;29.22;100042.69;5579414;23;20059;-75
2021/08/01 16:10:35;;;;;;;0.10;0.10;;;;;;;41.34;26.28;100038.72;4958516;28;20049;-78
2021/08/01 16:13:11;;;;;;;0.10;0.10;;;;;;;41.38;27.02;100043.47;4961731;28;20035;-77
2021/08/01 16:15:39;;;;;;;0.10;0.10;;;;;;;40.71;26.41;100038.56;4962824;28;20033;-78
2021/08/01 16:18:06;;;;;;;0.03;0.03;;;;;;;39.38;26.86;100038.94;4957088;28;20033;-76
2021/08/01 16:20:37;;;;;;;0.20;0.20;;;;;;;37.63;26.73;100034.78;4962783;28;20058;-77
2021/08/01 16:23:09;;;;;;;0.15;0.03;;;;;;;36.07;28.31;100026.81;4980523;28;20045;-77
2021/08/01 16:25:42;;;;;;;0.10;0.10;;;;;;;34.88;29.60;100035.63;4958607;28;20109;-78
2021/08/01 16:28:11;;;;;;;0.10;0.10;;;;;;;34.29;30.73;100026.06;4961476;28;20023;-81
2021/08/01 16:30:38;;;;;;;0.20;0.20;;;;;;;33.45;30.90;100020.41;4950313;28;20125;-77
2021/08/01 16:33:10;;;;;;;0.20;0.20;;;;;;;32.46;32.13;100021.59;4932924;28;20061;-77
2021/08/01 16:35:38;;;;;;;0.30;0.30;;;;;;;31.64;33.54;100027.88;4995076;28;20046;-78
2021/08/01 16:38:16;;;;;;;0.10;0.10;;;;;;;31.53;34.21;100020.66;4967695;28;20015;-79
2021/08/01 16:41:00;;;;;;;0.20;0.20;;;;;;;31.42;34.46;100026.44;4960374;28;20031;-79
2021/08/01 16:43:35;;;;;;;0.20;0.20;;;;;;;30.86;34.64;100018.84;4980924;28;20086;-78
2021/08/01 16:46:06;;;;;;;0.20;0.20;;;;;;;30.17;35.18;100017.63;4973873;28;20034;-77
2021/08/01 16:48:51;;;;;;;0.17;0.17;;;;;;;29.56;36.54;100007.38;4965111;28;20468;-78
2021/08/01 16:51:27;;;;;;;0.20;0.20;;;;;;;29.29;37.65;100021.91;4962133;28;20054;-78
2021/08/01 16:54:28;;;;;;;0.38;0.38;;;;;;;29.10;38.02;100019.47;4994982;28;20061;-79
2021/08/01 16:57:36;;;;;;;0.40;0.40;;;;;;;28.54;37.92;100014.19;4956027;28;20043;-78
2021/08/01 17:00:30;;;;;;;0.30;0.30;;;;;;;27.81;39.40;100020.75;4961977;28;20023;-77
2021/08/01 17:03:23;;;;;;;;;;;;;;;;;;;;;
2021/08/01 17:06:08;;;;;;;0.17;0.15;;;;;;;26.55;41.47;100019.75;4987204;28;20023;-78
2021/08/01 17:09:10;;;;;;;0.20;0.20;;;;;;;26.11;42.71;100008.06;4982571;28;20050;-77
2021/08/01 17:11:49;;;;;;;0.28;0.28;;;;;;;25.68;43.16;100001.06;4997078;28;20062;-77
2021/08/01 17:14:19;;;;;;;0.20;0.20;;;;;;;25.33;44.82;100002.19;4980744;28;20054;-78
2021/08/01 17:16:51;;;;;;;0.40;0.40;;;;;;;25.05;44.92;100000.53;4964506;28;20063;-78
2021/08/01 17:19:17;;;;;;;0.38;0.30;;;;;;;24.90;46.24;99997.50;4956365;28;20058;-76
2021/08/01 17:21:52;;;;;;;0.38;0.32;;;;;;;24.82;46.74;100001.34;4946662;28;20030;-76
2021/08/01 17:24:20;;;;;;;1.00;0.47;;;;;;;25.47;47.82;100013.59;4944543;28;20019;-78
2021/08/01 17:26:45;;;;;;;0.28;0.28;;;;;;;26.64;46.77;100023.03;4976405;28;20046;-78
2021/08/01 17:29:11;;;;;;;0.30;0.30;;;;;;;27.57;43.26;100023.03;4960285;28;20055;-77
2021/08/01 17:31:43;;;;;;;0.30;0.30;;;;;;;27.94;42.21;100019.19;4957631;28;20045;-77
2021/08/01 17:34:20;;;;;;;0.43;0.38;;;;;;;27.76;41.70;100018.28;4961528;28;20054;-76
2021/08/01 17:36:56;;;;;;;3.22;0.20;;;;;;;27.35;41.56;100022.09;4955131;28;20035;-76
2021/08/01 17:39:21;;;;;;;0.20;0.20;;;;;;;27.27;42.67;100021.19;4959361;28;20057;-75
2021/08/01 17:41:46;;;;;;;0.20;0.20;;;;;;;27.27;42.61;100020.38;4966118;28;20030;-77